sensor_id;sensor_type;location;lat;lon;timestamp;temperature;humidity
32400;DHT22;45045;45.440;9.178;2023-03-01T00:01:49;10.00;98.20
32400;DHT22;45045;45.440;9.178;2023-03-01T00:04:15;10.00;98.20
32400;DHT22;45045;45.440;9.178;2023-03-01T00:06:41;10.00;98.60
32400;DHT22;45045;45.440;9.178;2023-03-01T00:09:08;10.00;98.20
32400;DHT22;45045;45.440;9.178;2023-03-01T00:11:33;10.00;98.40
32400;DHT22;45045;45.440;9.178;2023-03-01T00:13:59;9.90;98.40
32400;DHT22;45045;45.440;9.178;2023-03-01T00:16:27;9.90;98.50
32400;DHT22;45045;45.440;9.178;2023-03-01T00:18:53;9.90;98.60
32400;DHT22;45045;45.440;9.178;2023-03-01T00:21:20;9.80;98.60
32400;DHT22;45045;45.440;9.178;2023-03-01T00:23:45;9.80;98.60
32400;DHT22;45045;45.440;9.178;2023-03-01T00:26:12;9.80;98.50
32400;DHT22;45045;45.440;9.178;2023-03-01T00:28:38;9.70;98.50
32400;DHT22;45045;45.440;9.178;2023-03-01T00:31:08;9.80;98.40
32400;DHT22;45045;45.440;9.178;2023-03-01T00:33:33;9.70;98.60
32400;DHT22;45045;45.440;9.178;2023-03-01T00:35:59;9.80;98.30
32400;DHT22;45045;45.440;9.178;2023-03-01T00:38:25;9.70;98.60
32400;DHT22;45045;45.440;9.178;2023-03-01T00:40:50;9.80;98.70
32400;DHT22;45045;45.440;9.178;2023-03-01T00:43:17;9.70;98.70
32400;DHT22;45045;45.440;9.178;2023-03-01T00:45:43;9.70;98.40
32400;DHT22;45045;45.440;9.178;2023-03-01T00:48:08;9.70;98.20
32400;DHT22;45045;45.440;9.178;2023-03-01T00:50:34;9.70;98.20
32400;DHT22;45045;45.440;9.178;2023-03-01T00:52:59;9.70;98.20
32400;DHT22;45045;45.440;9.178;2023-03-01T00:55:25;9.70;98.20
32400;DHT22;45045;45.440;9.178;2023-03-01T00:57:50;9.60;98.40
32400;DHT22;45045;45.440;9.178;2023-03-01T01:00:16;9.60;98.50
32400;DHT22;45045;45.440;9.178;2023-03-01T01:02:42;9.60;98.70
32400;DHT22;45045;45.440;9.178;2023-03-01T01:05:08;9.60;98.70
32400;DHT22;45045;45.440;9.178;2023-03-01T01:07:33;9.70;98.60
32400;DHT22;45045;45.440;9.178;2023-03-01T01:09:59;9.60;98.50
32400;DHT22;45045;45.440;9.178;2023-03-01T01:12:25;9.70;98.60
32400;DHT22;45045;45.440;9.178;2023-03-01T01:14:50;9.60;98.60
32400;DHT22;45045;45.440;9.178;2023-03-01T01:17:15;9.60;98.60
32400;DHT22;45045;45.440;9.178;2023-03-01T01:19:41;9.60;99.00
32400;DHT22;45045;45.440;9.178;2023-03-01T01:22:07;9.60;98.80
32400;DHT22;45045;45.440;9.178;2023-03-01T01:24:32;9.60;98.70
32400;DHT22;45045;45.440;9.178;2023-03-01T01:26:57;9.60;98.90
32400;DHT22;45045;45.440;9.178;2023-03-01T01:29:23;9.60;98.90
32400;DHT22;45045;45.440;9.178;2023-03-01T01:31:48;9.60;98.80
32400;DHT22;45045;45.440;9.178;2023-03-01T01:34:15;9.60;99.00
32400;DHT22;45045;45.440;9.178;2023-03-01T01:36:41;9.60;98.80
32400;DHT22;45045;45.440;9.178;2023-03-01T01:39:07;9.60;99.00
32400;DHT22;45045;45.440;9.178;2023-03-01T01:41:32;9.60;99.00
32400;DHT22;45045;45.440;9.178;2023-03-01T01:44:11;9.60;98.70
32400;DHT22;45045;45.440;9.178;2023-03-01T01:46:38;9.60;98.70
32400;DHT22;45045;45.440;9.178;2023-03-01T01:49:10;9.60;98.90
32400;DHT22;45045;45.440;9.178;2023-03-01T01:51:39;9.60;98.80
32400;DHT22;45045;45.440;9.178;2023-03-01T01:54:06;9.60;99.20
32400;DHT22;45045;45.440;9.178;2023-03-01T01:56:33;9.60;99.30
32400;DHT22;45045;45.440;9.178;2023-03-01T01:58:59;9.60;98.70
32400;DHT22;45045;45.440;9.178;2023-03-01T02:01:24;9.60;99.00
32400;DHT22;45045;45.440;9.178;2023-03-01T02:03:50;9.60;98.70
32400;DHT22;45045;45.440;9.178;2023-03-01T02:06:25;9.60;98.60
32400;DHT22;45045;45.440;9.178;2023-03-01T02:08:54;9.60;98.50
32400;DHT22;45045;45.440;9.178;2023-03-01T02:11:22;9.60;98.70
32400;DHT22;45045;45.440;9.178;2023-03-01T02:13:48;9.60;98.40
32400;DHT22;45045;45.440;9.178;2023-03-01T02:16:14;9.60;98.40
32400;DHT22;45045;45.440;9.178;2023-03-01T02:18:40;9.60;98.40
32400;DHT22;45045;45.440;9.178;2023-03-01T02:23:35;9.60;98.40
32400;DHT22;45045;45.440;9.178;2023-03-01T02:26:02;9.60;98.40
32400;DHT22;45045;45.440;9.178;2023-03-01T02:28:36;9.60;98.30
32400;DHT22;45045;45.440;9.178;2023-03-01T02:31:02;9.50;98.30
32400;DHT22;45045;45.440;9.178;2023-03-01T02:33:46;9.60;98.30
32400;DHT22;45045;45.440;9.178;2023-03-01T02:36:15;9.50;98.40
32400;DHT22;45045;45.440;9.178;2023-03-01T02:38:42;9.50;98.50
32400;DHT22;45045;45.440;9.178;2023-03-01T02:41:08;9.50;98.50
32400;DHT22;45045;45.440;9.178;2023-03-01T02:43:34;9.40;98.40
32400;DHT22;45045;45.440;9.178;2023-03-01T02:46:04;9.50;98.70
32400;DHT22;45045;45.440;9.178;2023-03-01T02:48:39;9.40;98.60
32400;DHT22;45045;45.440;9.178;2023-03-01T02:51:07;9.40;99.10
32400;DHT22;45045;45.440;9.178;2023-03-01T02:56:02;9.40;99.00
32400;DHT22;45045;45.440;9.178;2023-03-01T02:58:27;9.30;99.10
32400;DHT22;45045;45.440;9.178;2023-03-01T03:00:53;9.40;99.10
32400;DHT22;45045;45.440;9.178;2023-03-01T03:03:19;9.30;98.90
32400;DHT22;45045;45.440;9.178;2023-03-01T03:05:45;9.30;99.10
32400;DHT22;45045;45.440;9.178;2023-03-01T03:08:11;9.30;99.30
32400;DHT22;45045;45.440;9.178;2023-03-01T03:10:38;9.30;99.30
32400;DHT22;45045;45.440;9.178;2023-03-01T03:13:05;9.20;99.20
32400;DHT22;45045;45.440;9.178;2023-03-01T03:15:32;9.20;99.80
32400;DHT22;45045;45.440;9.178;2023-03-01T03:18:01;9.20;99.90
32400;DHT22;45045;45.440;9.178;2023-03-01T03:20:27;9.20;99.90
32400;DHT22;45045;45.440;9.178;2023-03-01T03:22:54;9.20;99.90
32400;DHT22;45045;45.440;9.178;2023-03-01T03:25:20;9.30;99.90
32400;DHT22;45045;45.440;9.178;2023-03-01T03:27:46;9.30;99.90
32400;DHT22;45045;45.440;9.178;2023-03-01T03:30:13;9.20;99.40
32400;DHT22;45045;45.440;9.178;2023-03-01T03:32:39;9.20;99.90
32400;DHT22;45045;45.440;9.178;2023-03-01T03:35:05;9.20;99.30
32400;DHT22;45045;45.440;9.178;2023-03-01T03:37:35;9.10;98.40
32400;DHT22;45045;45.440;9.178;2023-03-01T03:40:19;9.00;99.20
32400;DHT22;45045;45.440;9.178;2023-03-01T03:42:45;9.00;99.20
32400;DHT22;45045;45.440;9.178;2023-03-01T03:45:10;9.00;98.60
32400;DHT22;45045;45.440;9.178;2023-03-01T03:47:36;8.90;99.00
32400;DHT22;45045;45.440;9.178;2023-03-01T03:50:01;8.90;98.80
32400;DHT22;45045;45.440;9.178;2023-03-01T03:52:27;8.90;99.00
32400;DHT22;45045;45.440;9.178;2023-03-01T03:54:52;8.90;99.20
32400;DHT22;45045;45.440;9.178;2023-03-01T03:57:18;8.90;99.30
32400;DHT22;45045;45.440;9.178;2023-03-01T03:59:43;8.80;98.90
32400;DHT22;45045;45.440;9.178;2023-03-01T04:02:09;8.90;98.70
32400;DHT22;45045;45.440;9.178;2023-03-01T04:04:34;8.80;98.10
32400;DHT22;45045;45.440;9.178;2023-03-01T04:07:00;8.80;98.70
32400;DHT22;45045;45.440;9.178;2023-03-01T04:09:25;8.80;98.10
32400;DHT22;45045;45.440;9.178;2023-03-01T04:11:51;8.80;99.40
32400;DHT22;45045;45.440;9.178;2023-03-01T04:14:16;8.80;98.50
32400;DHT22;45045;45.440;9.178;2023-03-01T04:16:42;8.70;98.70
32400;DHT22;45045;45.440;9.178;2023-03-01T04:19:07;8.70;98.40
32400;DHT22;45045;45.440;9.178;2023-03-01T04:21:34;8.70;98.90
32400;DHT22;45045;45.440;9.178;2023-03-01T04:24:01;8.70;98.60
32400;DHT22;45045;45.440;9.178;2023-03-01T04:26:28;8.70;98.10
32400;DHT22;45045;45.440;9.178;2023-03-01T04:28:54;8.70;99.40
32400;DHT22;45045;45.440;9.178;2023-03-01T04:31:20;8.70;98.90
32400;DHT22;45045;45.440;9.178;2023-03-01T04:36:12;8.70;97.80
32400;DHT22;45045;45.440;9.178;2023-03-01T04:38:38;8.70;97.50
32400;DHT22;45045;45.440;9.178;2023-03-01T04:41:05;8.70;98.00
32400;DHT22;45045;45.440;9.178;2023-03-01T04:43:30;8.70;98.00
32400;DHT22;45045;45.440;9.178;2023-03-01T04:46:00;8.70;98.00
32400;DHT22;45045;45.440;9.178;2023-03-01T04:48:28;8.70;98.10
32400;DHT22;45045;45.440;9.178;2023-03-01T04:50:53;8.70;98.60
32400;DHT22;45045;45.440;9.178;2023-03-01T04:53:19;8.60;98.80
32400;DHT22;45045;45.440;9.178;2023-03-01T04:55:44;8.60;98.10
32400;DHT22;45045;45.440;9.178;2023-03-01T04:58:10;8.60;97.30
32400;DHT22;45045;45.440;9.178;2023-03-01T05:00:35;8.60;97.80
32400;DHT22;45045;45.440;9.178;2023-03-01T05:03:01;8.60;96.80
32400;DHT22;45045;45.440;9.178;2023-03-01T05:05:33;8.60;96.70
32400;DHT22;45045;45.440;9.178;2023-03-01T05:08:00;8.50;96.60
32400;DHT22;45045;45.440;9.178;2023-03-01T05:10:26;8.50;97.30
32400;DHT22;45045;45.440;9.178;2023-03-01T05:12:54;8.60;97.10
32400;DHT22;45045;45.440;9.178;2023-03-01T05:15:20;8.60;97.20
32400;DHT22;45045;45.440;9.178;2023-03-01T05:17:47;8.60;96.70
32400;DHT22;45045;45.440;9.178;2023-03-01T05:20:13;8.50;96.10
32400;DHT22;45045;45.440;9.178;2023-03-01T05:22:38;8.60;96.30
32400;DHT22;45045;45.440;9.178;2023-03-01T05:25:04;8.60;96.50
32400;DHT22;45045;45.440;9.178;2023-03-01T05:27:30;8.50;96.40
32400;DHT22;45045;45.440;9.178;2023-03-01T05:29:56;8.50;96.50
32400;DHT22;45045;45.440;9.178;2023-03-01T05:32:21;8.60;94.40
32400;DHT22;45045;45.440;9.178;2023-03-01T05:34:47;8.50;94.00
32400;DHT22;45045;45.440;9.178;2023-03-01T05:37:13;8.60;94.10
32400;DHT22;45045;45.440;9.178;2023-03-01T05:39:38;8.50;94.70
32400;DHT22;45045;45.440;9.178;2023-03-01T05:42:04;8.50;94.90
32400;DHT22;45045;45.440;9.178;2023-03-01T05:44:29;8.50;95.20
32400;DHT22;45045;45.440;9.178;2023-03-01T05:46:55;8.50;97.00
32400;DHT22;45045;45.440;9.178;2023-03-01T05:49:21;8.50;96.80
32400;DHT22;45045;45.440;9.178;2023-03-01T05:51:51;8.60;97.70
32400;DHT22;45045;45.440;9.178;2023-03-01T05:54:17;8.60;98.10
32400;DHT22;45045;45.440;9.178;2023-03-01T05:56:43;8.60;96.90
32400;DHT22;45045;45.440;9.178;2023-03-01T05:59:09;8.60;95.50
32400;DHT22;45045;45.440;9.178;2023-03-01T06:01:34;8.50;95.00
32400;DHT22;45045;45.440;9.178;2023-03-01T06:04:00;8.50;95.20
32400;DHT22;45045;45.440;9.178;2023-03-01T06:06:26;8.50;94.10
32400;DHT22;45045;45.440;9.178;2023-03-01T06:08:52;8.50;94.40
32400;DHT22;45045;45.440;9.178;2023-03-01T06:11:17;8.40;94.30
32400;DHT22;45045;45.440;9.178;2023-03-01T06:13:43;8.40;94.80
32400;DHT22;45045;45.440;9.178;2023-03-01T06:16:08;8.50;94.50
32400;DHT22;45045;45.440;9.178;2023-03-01T06:18:34;8.50;94.30
32400;DHT22;45045;45.440;9.178;2023-03-01T06:21:00;8.50;94.40
32400;DHT22;45045;45.440;9.178;2023-03-01T06:23:25;8.60;94.20
32400;DHT22;45045;45.440;9.178;2023-03-01T06:25:51;8.60;94.30
32400;DHT22;45045;45.440;9.178;2023-03-01T06:28:17;8.60;94.10
32400;DHT22;45045;45.440;9.178;2023-03-01T06:30:42;8.70;94.40
32400;DHT22;45045;45.440;9.178;2023-03-01T06:33:08;8.70;93.50
32400;DHT22;45045;45.440;9.178;2023-03-01T06:35:33;8.70;93.60
32400;DHT22;45045;45.440;9.178;2023-03-01T06:38:00;8.90;95.70
32400;DHT22;45045;45.440;9.178;2023-03-01T06:40:25;8.90;92.80
32400;DHT22;45045;45.440;9.178;2023-03-01T06:42:51;8.80;93.00
32400;DHT22;45045;45.440;9.178;2023-03-01T06:45:17;8.80;92.80
32400;DHT22;45045;45.440;9.178;2023-03-01T06:47:43;8.90;92.70
32400;DHT22;45045;45.440;9.178;2023-03-01T06:50:09;8.90;92.40
32400;DHT22;45045;45.440;9.178;2023-03-01T06:52:34;9.00;92.70
32400;DHT22;45045;45.440;9.178;2023-03-01T06:55:00;9.00;92.10
32400;DHT22;45045;45.440;9.178;2023-03-01T06:57:26;9.00;91.90
32400;DHT22;45045;45.440;9.178;2023-03-01T06:59:51;9.00;92.50
32400;DHT22;45045;45.440;9.178;2023-03-01T07:02:17;9.10;91.60
32400;DHT22;45045;45.440;9.178;2023-03-01T07:04:43;9.50;92.60
32400;DHT22;45045;45.440;9.178;2023-03-01T07:07:08;10.20;92.40
32400;DHT22;45045;45.440;9.178;2023-03-01T07:09:34;10.20;89.60
32400;DHT22;45045;45.440;9.178;2023-03-01T07:12:00;10.80;97.50
32400;DHT22;45045;45.440;9.178;2023-03-01T07:14:25;11.00;94.50
32400;DHT22;45045;45.440;9.178;2023-03-01T07:16:54;11.40;91.20
32400;DHT22;45045;45.440;9.178;2023-03-01T07:19:19;11.80;97.80
32400;DHT22;45045;45.440;9.178;2023-03-01T07:21:45;12.00;90.70
32400;DHT22;45045;45.440;9.178;2023-03-01T07:24:11;11.70;84.10
32400;DHT22;45045;45.440;9.178;2023-03-01T07:26:36;11.90;93.50
32400;DHT22;45045;45.440;9.178;2023-03-01T07:29:03;11.70;82.20
32400;DHT22;45045;45.440;9.178;2023-03-01T07:31:28;11.60;81.10
32400;DHT22;45045;45.440;9.178;2023-03-01T07:33:54;11.30;83.00
32400;DHT22;45045;45.440;9.178;2023-03-01T07:36:20;11.60;89.90
32400;DHT22;45045;45.440;9.178;2023-03-01T07:38:45;12.00;92.50
32400;DHT22;45045;45.440;9.178;2023-03-01T07:41:11;12.20;95.70
32400;DHT22;45045;45.440;9.178;2023-03-01T07:43:36;12.40;90.00
32400;DHT22;45045;45.440;9.178;2023-03-01T07:46:02;12.60;98.40
32400;DHT22;45045;45.440;9.178;2023-03-01T07:48:28;13.00;99.90
32400;DHT22;45045;45.440;9.178;2023-03-01T07:50:54;13.10;99.90
32400;DHT22;45045;45.440;9.178;2023-03-01T07:53:19;13.40;99.90
32400;DHT22;45045;45.440;9.178;2023-03-01T07:55:45;13.50;99.90
32400;DHT22;45045;45.440;9.178;2023-03-01T07:58:10;13.50;99.90
32400;DHT22;45045;45.440;9.178;2023-03-01T08:00:36;13.50;94.40
32400;DHT22;45045;45.440;9.178;2023-03-01T08:03:01;13.20;95.70
32400;DHT22;45045;45.440;9.178;2023-03-01T08:05:27;13.40;99.90
32400;DHT22;45045;45.440;9.178;2023-03-01T08:07:53;13.60;99.90
32400;DHT22;45045;45.440;9.178;2023-03-01T08:10:19;13.60;98.40
32400;DHT22;45045;45.440;9.178;2023-03-01T08:12:45;13.70;99.90
32400;DHT22;45045;45.440;9.178;2023-03-01T08:15:10;13.90;99.90
32400;DHT22;45045;45.440;9.178;2023-03-01T08:17:36;14.10;99.90
32400;DHT22;45045;45.440;9.178;2023-03-01T08:20:02;14.00;99.90
32400;DHT22;45045;45.440;9.178;2023-03-01T08:22:29;14.20;99.90
32400;DHT22;45045;45.440;9.178;2023-03-01T08:24:55;14.40;99.90
32400;DHT22;45045;45.440;9.178;2023-03-01T08:27:21;14.30;99.10
32400;DHT22;45045;45.440;9.178;2023-03-01T08:29:47;14.20;96.50
32400;DHT22;45045;45.440;9.178;2023-03-01T08:32:12;14.20;99.20
32400;DHT22;45045;45.440;9.178;2023-03-01T08:34:38;14.10;99.00
32400;DHT22;45045;45.440;9.178;2023-03-01T08:37:03;14.20;99.90
32400;DHT22;45045;45.440;9.178;2023-03-01T08:39:29;13.70;77.90
32400;DHT22;45045;45.440;9.178;2023-03-01T08:41:54;12.80;76.30
32400;DHT22;45045;45.440;9.178;2023-03-01T08:44:20;12.20;79.30
32400;DHT22;45045;45.440;9.178;2023-03-01T08:46:49;11.90;79.80
32400;DHT22;45045;45.440;9.178;2023-03-01T08:49:16;11.60;80.10
32400;DHT22;45045;45.440;9.178;2023-03-01T08:51:42;11.50;80.60
32400;DHT22;45045;45.440;9.178;2023-03-01T08:54:11;11.40;81.30
32400;DHT22;45045;45.440;9.178;2023-03-01T08:56:37;11.40;81.30
32400;DHT22;45045;45.440;9.178;2023-03-01T08:59:02;11.50;81.90
32400;DHT22;45045;45.440;9.178;2023-03-01T09:01:28;11.50;79.90
32400;DHT22;45045;45.440;9.178;2023-03-01T09:03:53;11.50;79.80
32400;DHT22;45045;45.440;9.178;2023-03-01T09:06:19;11.50;80.30
32400;DHT22;45045;45.440;9.178;2023-03-01T09:08:45;11.50;84.00
32400;DHT22;45045;45.440;9.178;2023-03-01T09:11:12;11.60;85.30
32400;DHT22;45045;45.440;9.178;2023-03-01T09:13:38;11.70;86.50
32400;DHT22;45045;45.440;9.178;2023-03-01T09:16:04;11.70;88.00
32400;DHT22;45045;45.440;9.178;2023-03-01T09:18:30;11.70;88.20
32400;DHT22;45045;45.440;9.178;2023-03-01T09:23:29;11.90;87.90
32400;DHT22;45045;45.440;9.178;2023-03-01T09:25:54;12.00;88.40
32400;DHT22;45045;45.440;9.178;2023-03-01T09:28:20;11.90;87.00
32400;DHT22;45045;45.440;9.178;2023-03-01T09:30:47;11.90;87.20
32400;DHT22;45045;45.440;9.178;2023-03-01T09:33:13;11.90;87.80
32400;DHT22;45045;45.440;9.178;2023-03-01T09:35:40;12.00;86.30
32400;DHT22;45045;45.440;9.178;2023-03-01T09:38:11;12.10;86.40
32400;DHT22;45045;45.440;9.178;2023-03-01T09:40:41;12.00;86.20
32400;DHT22;45045;45.440;9.178;2023-03-01T09:43:50;12.00;85.50
32400;DHT22;45045;45.440;9.178;2023-03-01T09:45:58;12.00;85.70
32400;DHT22;45045;45.440;9.178;2023-03-01T09:48:26;12.00;86.10
32400;DHT22;45045;45.440;9.178;2023-03-01T09:50:52;12.10;85.10
32400;DHT22;45045;45.440;9.178;2023-03-01T09:53:20;12.10;85.10
32400;DHT22;45045;45.440;9.178;2023-03-01T09:55:54;12.10;85.90
32400;DHT22;45045;45.440;9.178;2023-03-01T09:58:37;12.00;85.20
32400;DHT22;45045;45.440;9.178;2023-03-01T10:01:25;12.10;84.90
32400;DHT22;45045;45.440;9.178;2023-03-01T10:06:24;12.40;83.30
32400;DHT22;45045;45.440;9.178;2023-03-01T10:11:22;12.60;82.40
32400;DHT22;45045;45.440;9.178;2023-03-01T10:14:23;12.80;82.30
32400;DHT22;45045;45.440;9.178;2023-03-01T10:16:47;12.90;81.60
32400;DHT22;45045;45.440;9.178;2023-03-01T10:19:15;13.10;81.10
32400;DHT22;45045;45.440;9.178;2023-03-01T10:21:43;13.20;80.00
32400;DHT22;45045;45.440;9.178;2023-03-01T10:24:13;13.50;80.80
32400;DHT22;45045;45.440;9.178;2023-03-01T10:29:08;14.50;76.90
32400;DHT22;45045;45.440;9.178;2023-03-01T10:31:39;14.80;74.80
32400;DHT22;45045;45.440;9.178;2023-03-01T10:34:12;14.90;74.00
32400;DHT22;45045;45.440;9.178;2023-03-01T10:36:38;14.80;72.40
32400;DHT22;45045;45.440;9.178;2023-03-01T10:39:10;15.10;72.80
32400;DHT22;45045;45.440;9.178;2023-03-01T10:41:37;15.40;71.30
32400;DHT22;45045;45.440;9.178;2023-03-01T10:44:09;15.60;91.90
32400;DHT22;45045;45.440;9.178;2023-03-01T10:46:58;15.70;98.00
32400;DHT22;45045;45.440;9.178;2023-03-01T10:49:25;16.00;74.20
32400;DHT22;45045;45.440;9.178;2023-03-01T10:51:52;16.10;95.00
32400;DHT22;45045;45.440;9.178;2023-03-01T10:56:47;16.00;74.80
32400;DHT22;45045;45.440;9.178;2023-03-01T10:59:22;15.00;71.50
32400;DHT22;45045;45.440;9.178;2023-03-01T11:01:49;14.40;72.50
32400;DHT22;45045;45.440;9.178;2023-03-01T11:04:25;14.10;73.90
32400;DHT22;45045;45.440;9.178;2023-03-01T11:06:57;13.80;74.30
32400;DHT22;45045;45.440;9.178;2023-03-01T11:09:24;13.60;75.30
32400;DHT22;45045;45.440;9.178;2023-03-01T11:11:53;13.70;76.30
32400;DHT22;45045;45.440;9.178;2023-03-01T11:14:23;13.70;76.00
32400;DHT22;45045;45.440;9.178;2023-03-01T11:16:57;13.50;75.90
32400;DHT22;45045;45.440;9.178;2023-03-01T11:19:23;13.60;76.20
32400;DHT22;45045;45.440;9.178;2023-03-01T11:24:26;13.50;76.20
32400;DHT22;45045;45.440;9.178;2023-03-01T11:26:53;13.50;76.60
32400;DHT22;45045;45.440;9.178;2023-03-01T11:32:05;13.60;75.90
32400;DHT22;45045;45.440;9.178;2023-03-01T11:34:36;13.70;75.50
32400;DHT22;45045;45.440;9.178;2023-03-01T11:37:05;13.90;74.70
32400;DHT22;45045;45.440;9.178;2023-03-01T11:39:54;14.00;74.40
32400;DHT22;45045;45.440;9.178;2023-03-01T11:45:09;13.80;74.80
32400;DHT22;45045;45.440;9.178;2023-03-01T11:52:51;13.60;74.60
32400;DHT22;45045;45.440;9.178;2023-03-01T12:06:04;15.20;99.90
32400;DHT22;45045;45.440;9.178;2023-03-01T12:08:38;15.40;79.90
32400;DHT22;45045;45.440;9.178;2023-03-01T12:18:49;14.00;76.80
32400;DHT22;45045;45.440;9.178;2023-03-01T12:21:28;14.10;77.80
32400;DHT22;45045;45.440;9.178;2023-03-01T12:26:31;13.80;76.10
32400;DHT22;45045;45.440;9.178;2023-03-01T12:29:02;13.60;76.60
32400;DHT22;45045;45.440;9.178;2023-03-01T12:49:34;14.00;76.30
32400;DHT22;45045;45.440;9.178;2023-03-01T12:54:27;13.80;76.10
32400;DHT22;45045;45.440;9.178;2023-03-01T12:56:53;14.00;75.90
32400;DHT22;45045;45.440;9.178;2023-03-01T12:59:31;14.00;74.90
32400;DHT22;45045;45.440;9.178;2023-03-01T13:07:03;13.70;76.30
32400;DHT22;45045;45.440;9.178;2023-03-01T13:09:34;13.50;76.60
32400;DHT22;45045;45.440;9.178;2023-03-01T13:12:00;13.50;76.30
32400;DHT22;45045;45.440;9.178;2023-03-01T13:14:34;13.50;76.90
32400;DHT22;45045;45.440;9.178;2023-03-01T13:17:00;13.40;77.30
32400;DHT22;45045;45.440;9.178;2023-03-01T13:19:26;13.40;78.10
32400;DHT22;45045;45.440;9.178;2023-03-01T13:21:55;13.30;77.50
32400;DHT22;45045;45.440;9.178;2023-03-01T13:37:42;13.30;78.00
32400;DHT22;45045;45.440;9.178;2023-03-01T13:42:53;13.20;79.40
32400;DHT22;45045;45.440;9.178;2023-03-01T13:45:20;13.30;79.30
32400;DHT22;45045;45.440;9.178;2023-03-01T13:47:47;13.30;78.60
32400;DHT22;45045;45.440;9.178;2023-03-01T13:50:22;13.20;78.20
32400;DHT22;45045;45.440;9.178;2023-03-01T13:52:59;13.20;78.80
32400;DHT22;45045;45.440;9.178;2023-03-01T13:55:40;13.30;79.40
32400;DHT22;45045;45.440;9.178;2023-03-01T13:58:19;13.30;78.90
32400;DHT22;45045;45.440;9.178;2023-03-01T14:00:46;13.10;79.30
32400;DHT22;45045;45.440;9.178;2023-03-01T14:03:20;13.10;79.70
32400;DHT22;45045;45.440;9.178;2023-03-01T14:05:59;13.10;79.80
32400;DHT22;45045;45.440;9.178;2023-03-01T14:08:26;13.10;79.70
32400;DHT22;45045;45.440;9.178;2023-03-01T14:10:59;13.10;80.40
32400;DHT22;45045;45.440;9.178;2023-03-01T14:16:12;13.20;79.10
32400;DHT22;45045;45.440;9.178;2023-03-01T14:18:52;13.00;80.20
32400;DHT22;45045;45.440;9.178;2023-03-01T14:21:21;12.80;80.20
32400;DHT22;45045;45.440;9.178;2023-03-01T14:23:47;12.90;81.00
32400;DHT22;45045;45.440;9.178;2023-03-01T14:26:13;13.00;80.90
32400;DHT22;45045;45.440;9.178;2023-03-01T14:28:45;12.90;81.20
32400;DHT22;45045;45.440;9.178;2023-03-01T14:34:16;12.70;82.70
32400;DHT22;45045;45.440;9.178;2023-03-01T14:36:43;12.60;82.60
32400;DHT22;45045;45.440;9.178;2023-03-01T14:39:19;12.60;82.40
32400;DHT22;45045;45.440;9.178;2023-03-01T14:41:46;12.50;82.50
32400;DHT22;45045;45.440;9.178;2023-03-01T14:44:14;12.60;82.80
32400;DHT22;45045;45.440;9.178;2023-03-01T14:46:41;12.60;82.90
32400;DHT22;45045;45.440;9.178;2023-03-01T14:49:15;12.60;83.30
32400;DHT22;45045;45.440;9.178;2023-03-01T14:51:42;12.60;83.10
32400;DHT22;45045;45.440;9.178;2023-03-01T14:57:00;12.60;82.80
32400;DHT22;45045;45.440;9.178;2023-03-01T14:59:26;12.60;83.70
32400;DHT22;45045;45.440;9.178;2023-03-01T15:01:52;12.70;83.20
32400;DHT22;45045;45.440;9.178;2023-03-01T15:04:18;12.70;82.90
32400;DHT22;45045;45.440;9.178;2023-03-01T15:06:44;12.70;82.80
32400;DHT22;45045;45.440;9.178;2023-03-01T15:09:14;12.70;83.00
32400;DHT22;45045;45.440;9.178;2023-03-01T15:11:41;12.70;83.50
32400;DHT22;45045;45.440;9.178;2023-03-01T15:16:53;12.70;82.70
32400;DHT22;45045;45.440;9.178;2023-03-01T15:19:19;12.60;82.30
32400;DHT22;45045;45.440;9.178;2023-03-01T15:21:46;12.60;82.60
32400;DHT22;45045;45.440;9.178;2023-03-01T15:26:49;12.50;82.80
32400;DHT22;45045;45.440;9.178;2023-03-01T15:29:20;12.60;82.80
32400;DHT22;45045;45.440;9.178;2023-03-01T15:32:00;12.60;83.00
32400;DHT22;45045;45.440;9.178;2023-03-01T15:34:33;12.60;82.90
32400;DHT22;45045;45.440;9.178;2023-03-01T15:36:59;13.60;97.40
32400;DHT22;45045;45.440;9.178;2023-03-01T15:39:31;14.10;91.50
32400;DHT22;45045;45.440;9.178;2023-03-01T15:41:58;13.90;79.70
32400;DHT22;45045;45.440;9.178;2023-03-01T15:44:28;13.20;80.90
32400;DHT22;45045;45.440;9.178;2023-03-01T15:46:54;12.80;82.60
32400;DHT22;45045;45.440;9.178;2023-03-01T15:49:35;12.70;83.80
32400;DHT22;45045;45.440;9.178;2023-03-01T15:52:01;12.60;84.10
32400;DHT22;45045;45.440;9.178;2023-03-01T15:54:28;12.50;84.60
32400;DHT22;45045;45.440;9.178;2023-03-01T15:56:53;12.50;84.60
32400;DHT22;45045;45.440;9.178;2023-03-01T15:59:19;12.40;84.80
32400;DHT22;45045;45.440;9.178;2023-03-01T16:01:45;12.40;85.00
32400;DHT22;45045;45.440;9.178;2023-03-01T16:04:11;12.40;85.60
32400;DHT22;45045;45.440;9.178;2023-03-01T16:06:41;12.40;85.00
32400;DHT22;45045;45.440;9.178;2023-03-01T16:09:07;12.40;85.30
32400;DHT22;45045;45.440;9.178;2023-03-01T16:11:33;12.40;85.70
32400;DHT22;45045;45.440;9.178;2023-03-01T16:14:02;12.30;85.30
32400;DHT22;45045;45.440;9.178;2023-03-01T16:16:27;12.30;85.50
32400;DHT22;45045;45.440;9.178;2023-03-01T16:18:53;12.30;86.20
32400;DHT22;45045;45.440;9.178;2023-03-01T16:21:21;12.30;85.90
32400;DHT22;45045;45.440;9.178;2023-03-01T16:23:47;12.20;85.80
32400;DHT22;45045;45.440;9.178;2023-03-01T16:26:13;12.30;86.60
32400;DHT22;45045;45.440;9.178;2023-03-01T16:28:41;12.20;86.40
32400;DHT22;45045;45.440;9.178;2023-03-01T16:31:07;12.20;86.40
32400;DHT22;45045;45.440;9.178;2023-03-01T16:33:33;12.30;86.60
32400;DHT22;45045;45.440;9.178;2023-03-01T16:35:59;12.30;86.70
32400;DHT22;45045;45.440;9.178;2023-03-01T16:38:27;12.30;86.70
32400;DHT22;45045;45.440;9.178;2023-03-01T16:40:52;12.20;87.20
32400;DHT22;45045;45.440;9.178;2023-03-01T16:43:18;12.20;88.40
32400;DHT22;45045;45.440;9.178;2023-03-01T16:45:43;12.20;88.70
32400;DHT22;45045;45.440;9.178;2023-03-01T16:48:12;12.20;90.00
32400;DHT22;45045;45.440;9.178;2023-03-01T16:50:37;12.20;90.10
32400;DHT22;45045;45.440;9.178;2023-03-01T16:53:03;12.10;90.70
32400;DHT22;45045;45.440;9.178;2023-03-01T16:55:28;12.10;90.80
32400;DHT22;45045;45.440;9.178;2023-03-01T16:57:54;12.00;90.80
32400;DHT22;45045;45.440;9.178;2023-03-01T17:00:20;11.90;91.30
32400;DHT22;45045;45.440;9.178;2023-03-01T17:02:46;11.80;91.20
32400;DHT22;45045;45.440;9.178;2023-03-01T17:05:11;11.80;92.30
32400;DHT22;45045;45.440;9.178;2023-03-01T17:07:37;11.70;93.00
32400;DHT22;45045;45.440;9.178;2023-03-01T17:10:04;11.70;93.20
32400;DHT22;45045;45.440;9.178;2023-03-01T17:12:30;11.50;94.10
32400;DHT22;45045;45.440;9.178;2023-03-01T17:14:57;11.50;94.20
32400;DHT22;45045;45.440;9.178;2023-03-01T17:17:22;11.50;95.50
32400;DHT22;45045;45.440;9.178;2023-03-01T17:19:48;11.80;98.50
32400;DHT22;45045;45.440;9.178;2023-03-01T17:22:13;12.30;99.90
32400;DHT22;45045;45.440;9.178;2023-03-01T17:24:39;12.30;95.70
32400;DHT22;45045;45.440;9.178;2023-03-01T17:27:05;11.80;96.50
32400;DHT22;45045;45.440;9.178;2023-03-01T17:29:31;11.50;97.60